• Join FlightAware (Why Join?)
  • Login
  • US Flag 
12:37AM EDT


 

Airport Tracker/Info


-or-


 

Live Flight TrackerFlight Track Log ✈ EJA930 ✈ 26-Jun-2013 ✈ KCHS - KCRW

Flight Track Log - Related Links

Times and Time Zones

All times are in EDT time to prevent confusion due to time zone crossing. See the EJA930 flight status page for this flight to view local times or setup timezone preferences in your user account.

Time Position Orientation Groundspeed Altitude Reporting Facility
EDT Latitude Longitude Course Direction KTS MPH feet Rate Location/Type
01:48PM 32.8244 -80.0053 37° Northeast 275 316 4,800  Level Jacksonville Center
01:49PM 32.8819 -79.9539 37° Northeast 315 362 9,000 3,840 Climbing Jacksonville Center
01:50PM 32.9675 -79.9611 356° North 286 329 12,500 2,820 Climbing Jacksonville Center
01:51PM 33.0278 -80.0358 314° West 257 296 14,700 2,160 Climbing Jacksonville Center
01:52PM 33.0775 -80.1211 305° West 289 333 16,900 1,500 Climbing Jacksonville Center
01:53PM 33.1461 -80.1958 318° Northwest 321 369 17,800 900 Climbing Jacksonville Center
01:54PM 33.2311 -80.2728 323° Northwest 356 410 18,700 960 Climbing Jacksonville Center
01:55PM 33.3225 -80.3544 323° Northwest 390 449 19,800 1,380 Climbing Jacksonville Center
01:56PM 33.4097 -80.4342 323° Northwest 403 464 21,500 1,440 Climbing Jacksonville Center
01:57PM 33.5053 -80.5186 324° Northwest 409 471 22,700 1,200 Climbing Jacksonville Center
01:58PM 33.5986 -80.6058 322° Northwest 416 479 23,900 1,200 Climbing Jacksonville Center
01:59PM 33.6942 -80.6883 324° Northwest 421 484 25,200 2,220 Climbing Jacksonville Center
02:00PM 33.7894 -80.7783 322° Northwest 431 496 28,400 2,160 Climbing Jacksonville Center
02:01PM 33.8828 -80.8611 324° Northwest 426 490 29,600 1,320 Climbing Jacksonville Center
02:02PM 33.9739 -80.9569 319° Northwest 431 496 31,100 1,680 Climbing Jacksonville Center
02:03PM 34.0656 -81.0828 311° West 436 502 33,000 1,260 Climbing Jacksonville Center
02:04PM 34.1486 -81.2039 310° West 453 521 33,700 900 Climbing Jacksonville Center
02:06PM 34.3475 -81.3719 325° Northwest 476 548 35,700 780 Climbing Atlanta Center
02:07PM 34.4686 -81.4689 327° Northwest 503 579 36,000 120 Climbing Atlanta Center
02:08PM 34.5875 -81.5636 327° Northwest 510 587 36,000  Level Atlanta Center
02:09PM 34.7064 -81.6661 325° Northwest 525 604 36,000 -540 Level Atlanta Center
02:10PM 34.8250 -81.7614 327° Northwest 520 598 35,000 -540 Descending Atlanta Center
02:11PM 34.9456 -81.8569 327° Northwest 520 598 35,000  Level Atlanta Center
02:12PM 35.0781 -81.9119 341° North 508 585 35,000  Level Atlanta Center
02:13PM 35.2139 -81.9236 356° North 494 568 35,000  Level Atlanta Center
02:14PM 35.3661 -81.9172 North 494 568 35,000  Level Atlanta Center
02:15PM 35.5017 -81.9111 North 494 568 35,000  Level Atlanta Center
02:16PM 35.6392 -81.9050 North 494 568 35,000  Level Atlanta Center
02:17PM 35.7747 -81.8964 North 494 568 35,000  Level Atlanta Center
02:18PM 35.9081 -81.8903 North 489 563 35,000  Level Atlanta Center
02:19PM 36.0394 -81.8869 North 474 545 35,000  Level Atlanta Center
02:20PM 36.1603 -81.8758 North 474 545 35,000  Level Atlanta Center
02:21PM 36.2872 -81.8725 North 468 539 35,000 -900 Level Atlanta Center
02:22PM 36.4186 -81.8639 North 468 539 33,200 -2,100 Descending Atlanta Center
02:23PM 36.5561 -81.8575 North 481 554 30,800 -1,980 Descending Atlanta Center
02:25PM 36.8425 -81.8431 North 507 583 27,200 -1,860 Descending Indianapolis Center
02:26PM 37.0061 -81.8361 North 506 582 25,100 -1,080 Descending Indianapolis Center
02:27PM 37.1428 -81.8286 North 494 568 25,000 -540 Descending Indianapolis Center
02:28PM 37.2758 -81.8231 North 481 554 24,000 -540 Descending Indianapolis Center
02:29PM 37.4103 -81.8178 North 483 556 24,000  Level Indianapolis Center
02:30PM 37.5397 -81.8108 North 471 542 24,000 -720 Level Indianapolis Center
02:31PM 37.6889 -81.8039 North 463 533 22,600 -2,760 Descending Indianapolis Center
02:32PM 37.8161 -81.7972 North 461 531 18,400 -4,020 Descending Indianapolis Center
02:33PM 37.9272 -81.7642 13° North 446 513 14,400 -3,600 Descending Indianapolis Center
02:34PM 38.0283 -81.6972 28° Northeast 411 473 11,000 -2,040 Descending Indianapolis Center
02:35PM 38.1131 -81.6369 29° Northeast 337 388 10,200 -540 Descending Indianapolis Center
02:36PM 38.1856 -81.6017 21° North 280 322 9,900 -1,500 Descending Indianapolis Center
02:37PM 38.2611 -81.5650 21° North 247 284 7,100 -2,760 Descending Indianapolis Center
02:38PM 38.3283 -81.5236 26° Northeast 267 307 4,300 -2,280 Descending Indianapolis Center
02:39PM 38.3897 -81.5053 13° North 271 312 2,500 -1,320 Descending Indianapolis Center
02:41PM 38.4039 -81.5572 289° West 213 245 1,600 -660 Descending Indianapolis Center
02:42PM 38.3769 -81.5914 225° Southwest 190 219 1,200 -420 Descending Indianapolis Center